KMCE/MCE METAR and TAF weather

Enter ICAO airport designator
Station Type Date Time Source
KMCE METAR 2022/06/27 07:53 UTC NOAA

KMCE 270753Z AUTO 31003KT 10SM CLR 24/08 A2994 RMK AO2 SLP137 T02390083 403940183


Station Type Date Time Source
KMCE Decoded METAR 2022/06/27 07:53 UTC NOAA

MERCED MUNICIPAL AIRPORT, CA, United States (KMCE) 37-17N 120-30W 47M
Jun 27, 2022 - 03:53 AM EDT / 2022.06.27 0753 UTC
Wind: from the NW (310 degrees) at 3 MPH (3 KT):0
Visibility: 10 mile(s):0
Sky conditions: clear
Temperature: 75.0 F (23.9 C)
Dew Point: 46.9 F (8.3 C)
Relative Humidity: 36%
Pressure (altimeter): 29.94 in. Hg (1013 hPa)
ob: KMCE 270753Z AUTO 31003KT 10SM CLR 24/08 A2994 RMK AO2 SLP137 T02390083 403940183
cycle: 8

Station Type Date Time Source
KMCE TAF 2022/06/27 06:22 UTC NOAA

TAF KMCE 270520Z 2706/2806 32008KT P6SM SKC

Example: see airport list